sensor_id;sensor_type;location;lat;lon;timestamp;P1;durP1;ratioP1;P2;durP2;ratioP2
19384;SDS011;9828;54.122;17.974;2023-04-03T00:00:07;9.90;;;2.07;;
19384;SDS011;9828;54.122;17.974;2023-04-03T00:05:29;6.10;;;3.00;;
19384;SDS011;9828;54.122;17.974;2023-04-03T00:10:50;7.50;;;2.87;;
19384;SDS011;9828;54.122;17.974;2023-04-03T00:16:12;4.47;;;1.93;;
19384;SDS011;9828;54.122;17.974;2023-04-03T00:21:33;6.53;;;3.00;;
19384;SDS011;9828;54.122;17.974;2023-04-03T00:26:54;6.27;;;3.13;;
19384;SDS011;9828;54.122;17.974;2023-04-03T00:32:17;9.20;;;3.93;;
19384;SDS011;9828;54.122;17.974;2023-04-03T00:37:39;9.23;;;3.10;;
19384;SDS011;9828;54.122;17.974;2023-04-03T00:43:01;7.00;;;2.83;;
19384;SDS011;9828;54.122;17.974;2023-04-03T00:48:28;23.03;;;7.73;;
19384;SDS011;9828;54.122;17.974;2023-04-03T00:53:53;25.37;;;10.93;;
19384;SDS011;9828;54.122;17.974;2023-04-03T00:59:20;29.63;;;11.70;;
19384;SDS011;9828;54.122;17.974;2023-04-03T01:04:46;22.93;;;11.23;;
19384;SDS011;9828;54.122;17.974;2023-04-03T01:10:09;18.40;;;7.33;;
19384;SDS011;9828;54.122;17.974;2023-04-03T01:15:34;25.70;;;12.40;;
19384;SDS011;9828;54.122;17.974;2023-04-03T01:26:22;20.90;;;9.07;;
19384;SDS011;9828;54.122;17.974;2023-04-03T01:31:56;19.60;;;8.13;;
19384;SDS011;9828;54.122;17.974;2023-04-03T01:37:19;11.47;;;5.17;;
19384;SDS011;9828;54.122;17.974;2023-04-03T01:42:41;17.43;;;7.97;;
19384;SDS011;9828;54.122;17.974;2023-04-03T01:48:02;15.20;;;7.67;;
19384;SDS011;9828;54.122;17.974;2023-04-03T01:53:24;20.90;;;10.23;;
19384;SDS011;9828;54.122;17.974;2023-04-03T01:58:46;21.83;;;9.00;;
19384;SDS011;9828;54.122;17.974;2023-04-03T02:04:08;24.30;;;10.47;;
19384;SDS011;9828;54.122;17.974;2023-04-03T02:09:29;18.50;;;9.77;;
19384;SDS011;9828;54.122;17.974;2023-04-03T02:14:50;30.10;;;14.07;;
19384;SDS011;9828;54.122;17.974;2023-04-03T02:20:13;23.27;;;12.97;;
19384;SDS011;9828;54.122;17.974;2023-04-03T02:25:34;18.43;;;9.37;;
19384;SDS011;9828;54.122;17.974;2023-04-03T02:30:57;24.77;;;10.27;;
19384;SDS011;9828;54.122;17.974;2023-04-03T02:36:19;18.13;;;9.67;;
19384;SDS011;9828;54.122;17.974;2023-04-03T02:41:46;25.57;;;13.87;;
19384;SDS011;9828;54.122;17.974;2023-04-03T02:47:13;32.37;;;16.70;;
19384;SDS011;9828;54.122;17.974;2023-04-03T02:52:35;26.60;;;14.57;;
19384;SDS011;9828;54.122;17.974;2023-04-03T02:57:56;33.57;;;17.70;;
19384;SDS011;9828;54.122;17.974;2023-04-03T03:03:17;30.37;;;15.73;;
19384;SDS011;9828;54.122;17.974;2023-04-03T03:08:38;52.40;;;26.40;;
19384;SDS011;9828;54.122;17.974;2023-04-03T03:13:59;17.93;;;8.63;;
19384;SDS011;9828;54.122;17.974;2023-04-03T03:19:20;27.23;;;11.07;;
19384;SDS011;9828;54.122;17.974;2023-04-03T03:24:41;33.47;;;13.80;;
19384;SDS011;9828;54.122;17.974;2023-04-03T03:30:03;23.23;;;12.10;;
19384;SDS011;9828;54.122;17.974;2023-04-03T03:35:26;31.70;;;14.43;;
19384;SDS011;9828;54.122;17.974;2023-04-03T03:40:48;30.17;;;14.13;;
19384;SDS011;9828;54.122;17.974;2023-04-03T03:46:12;51.03;;;21.43;;
19384;SDS011;9828;54.122;17.974;2023-04-03T03:51:33;24.23;;;11.93;;
19384;SDS011;9828;54.122;17.974;2023-04-03T03:56:55;11.37;;;6.57;;
19384;SDS011;9828;54.122;17.974;2023-04-03T04:02:17;5.07;;;2.27;;
19384;SDS011;9828;54.122;17.974;2023-04-03T04:07:38;5.87;;;1.93;;
19384;SDS011;9828;54.122;17.974;2023-04-03T04:13:00;5.80;;;2.37;;
19384;SDS011;9828;54.122;17.974;2023-04-03T04:18:22;8.87;;;1.60;;
19384;SDS011;9828;54.122;17.974;2023-04-03T04:23:44;5.83;;;2.83;;
19384;SDS011;9828;54.122;17.974;2023-04-03T04:29:08;4.67;;;2.40;;
19384;SDS011;9828;54.122;17.974;2023-04-03T04:34:31;4.00;;;2.20;;
19384;SDS011;9828;54.122;17.974;2023-04-03T04:39:54;3.23;;;1.70;;
19384;SDS011;9828;54.122;17.974;2023-04-03T04:45:16;9.00;;;1.70;;
19384;SDS011;9828;54.122;17.974;2023-04-03T04:50:39;6.70;;;2.17;;
19384;SDS011;9828;54.122;17.974;2023-04-03T04:56:00;4.83;;;2.07;;
19384;SDS011;9828;54.122;17.974;2023-04-03T05:01:23;4.90;;;1.73;;
19384;SDS011;9828;54.122;17.974;2023-04-03T05:06:54;5.63;;;2.53;;
19384;SDS011;9828;54.122;17.974;2023-04-03T05:12:20;14.90;;;4.17;;
19384;SDS011;9828;54.122;17.974;2023-04-03T05:17:47;10.00;;;5.10;;
19384;SDS011;9828;54.122;17.974;2023-04-03T05:23:10;5.87;;;2.27;;
19384;SDS011;9828;54.122;17.974;2023-04-03T05:28:33;2.83;;;1.47;;
19384;SDS011;9828;54.122;17.974;2023-04-03T05:33:54;4.47;;;1.40;;
19384;SDS011;9828;54.122;17.974;2023-04-03T05:39:16;3.93;;;1.73;;
19384;SDS011;9828;54.122;17.974;2023-04-03T05:46:53;5.87;;;2.17;;
19384;SDS011;9828;54.122;17.974;2023-04-03T05:52:20;6.87;;;2.90;;
19384;SDS011;9828;54.122;17.974;2023-04-03T05:57:43;15.67;;;5.43;;
19384;SDS011;9828;54.122;17.974;2023-04-03T06:03:04;11.07;;;3.83;;
19384;SDS011;9828;54.122;17.974;2023-04-03T06:08:26;19.37;;;7.87;;
19384;SDS011;9828;54.122;17.974;2023-04-03T06:13:47;16.30;;;4.77;;
19384;SDS011;9828;54.122;17.974;2023-04-03T06:19:08;5.57;;;2.17;;
19384;SDS011;9828;54.122;17.974;2023-04-03T06:24:34;9.80;;;4.40;;
19384;SDS011;9828;54.122;17.974;2023-04-03T06:29:56;15.07;;;5.80;;
19384;SDS011;9828;54.122;17.974;2023-04-03T06:35:17;3.87;;;1.80;;
19384;SDS011;9828;54.122;17.974;2023-04-03T06:40:38;5.50;;;2.53;;
19384;SDS011;9828;54.122;17.974;2023-04-03T06:46:00;8.03;;;1.63;;
19384;SDS011;9828;54.122;17.974;2023-04-03T06:51:25;5.53;;;1.40;;
19384;SDS011;9828;54.122;17.974;2023-04-03T06:56:48;3.90;;;1.93;;
19384;SDS011;9828;54.122;17.974;2023-04-03T07:02:10;6.90;;;2.17;;
19384;SDS011;9828;54.122;17.974;2023-04-03T07:07:33;5.30;;;1.70;;
19384;SDS011;9828;54.122;17.974;2023-04-03T07:12:54;16.80;;;2.10;;
19384;SDS011;9828;54.122;17.974;2023-04-03T07:18:16;4.00;;;1.90;;
19384;SDS011;9828;54.122;17.974;2023-04-03T07:23:40;4.37;;;1.50;;
19384;SDS011;9828;54.122;17.974;2023-04-03T07:29:01;4.30;;;1.87;;
19384;SDS011;9828;54.122;17.974;2023-04-03T07:34:23;22.57;;;8.00;;
19384;SDS011;9828;54.122;17.974;2023-04-03T07:39:44;9.17;;;4.03;;
19384;SDS011;9828;54.122;17.974;2023-04-03T07:45:06;11.53;;;5.47;;
19384;SDS011;9828;54.122;17.974;2023-04-03T07:50:28;10.50;;;3.00;;
19384;SDS011;9828;54.122;17.974;2023-04-03T07:55:50;6.10;;;3.47;;
19384;SDS011;9828;54.122;17.974;2023-04-03T08:01:15;8.50;;;3.93;;
19384;SDS011;9828;54.122;17.974;2023-04-03T08:06:37;5.23;;;2.17;;
19384;SDS011;9828;54.122;17.974;2023-04-03T08:12:04;5.27;;;3.23;;
19384;SDS011;9828;54.122;17.974;2023-04-03T08:17:26;4.10;;;1.80;;
19384;SDS011;9828;54.122;17.974;2023-04-03T08:22:47;3.87;;;1.50;;
19384;SDS011;9828;54.122;17.974;2023-04-03T08:28:09;5.20;;;2.47;;
19384;SDS011;9828;54.122;17.974;2023-04-03T08:33:32;8.80;;;4.63;;
19384;SDS011;9828;54.122;17.974;2023-04-03T08:38:54;8.93;;;3.87;;
19384;SDS011;9828;54.122;17.974;2023-04-03T08:50:17;34.47;;;11.63;;
19384;SDS011;9828;54.122;17.974;2023-04-03T08:55:43;32.67;;;10.67;;
19384;SDS011;9828;54.122;17.974;2023-04-03T09:01:19;63.43;;;16.93;;
19384;SDS011;9828;54.122;17.974;2023-04-03T09:06:52;6.90;;;3.60;;
19384;SDS011;9828;54.122;17.974;2023-04-03T09:12:18;6.30;;;1.70;;
19384;SDS011;9828;54.122;17.974;2023-04-03T09:28:59;6.53;;;2.90;;
19384;SDS011;9828;54.122;17.974;2023-04-03T09:34:35;7.27;;;2.73;;
19384;SDS011;9828;54.122;17.974;2023-04-03T09:39:57;18.03;;;7.73;;
19384;SDS011;9828;54.122;17.974;2023-04-03T09:45:21;30.80;;;11.63;;
19384;SDS011;9828;54.122;17.974;2023-04-03T09:50:58;17.00;;;6.63;;
19384;SDS011;9828;54.122;17.974;2023-04-03T09:56:25;16.67;;;8.73;;
19384;SDS011;9828;54.122;17.974;2023-04-03T10:02:19;20.87;;;8.50;;
19384;SDS011;9828;54.122;17.974;2023-04-03T10:07:42;12.07;;;4.30;;
19384;SDS011;9828;54.122;17.974;2023-04-03T10:13:09;4.97;;;3.30;;
19384;SDS011;9828;54.122;17.974;2023-04-03T10:18:46;7.80;;;2.40;;
19384;SDS011;9828;54.122;17.974;2023-04-03T10:24:11;9.87;;;4.57;;
19384;SDS011;9828;54.122;17.974;2023-04-03T10:46:28;13.53;;;4.63;;
19384;SDS011;9828;54.122;17.974;2023-04-03T10:57:44;46.47;;;11.67;;
19384;SDS011;9828;54.122;17.974;2023-04-03T11:09:07;39.20;;;11.37;;
19384;SDS011;9828;54.122;17.974;2023-04-03T11:14:36;37.47;;;9.83;;
19384;SDS011;9828;54.122;17.974;2023-04-03T11:20:01;16.93;;;6.00;;
19384;SDS011;9828;54.122;17.974;2023-04-03T11:25:32;9.60;;;4.10;;
19384;SDS011;9828;54.122;17.974;2023-04-03T11:36:28;14.03;;;5.57;;
19384;SDS011;9828;54.122;17.974;2023-04-03T11:42:14;33.00;;;12.67;;
19384;SDS011;9828;54.122;17.974;2023-04-03T11:47:55;12.23;;;5.27;;
19384;SDS011;9828;54.122;17.974;2023-04-03T12:04:30;7.93;;;2.87;;
19384;SDS011;9828;54.122;17.974;2023-04-03T12:09:54;20.20;;;6.57;;
19384;SDS011;9828;54.122;17.974;2023-04-03T12:15:21;24.87;;;8.93;;
19384;SDS011;9828;54.122;17.974;2023-04-03T12:31:42;8.23;;;4.20;;
19384;SDS011;9828;54.122;17.974;2023-04-03T12:48:26;15.97;;;7.43;;
19384;SDS011;9828;54.122;17.974;2023-04-03T12:53:49;5.17;;;3.00;;
19384;SDS011;9828;54.122;17.974;2023-04-03T12:59:20;6.83;;;2.60;;
19384;SDS011;9828;54.122;17.974;2023-04-03T13:04:43;7.23;;;2.80;;
19384;SDS011;9828;54.122;17.974;2023-04-03T13:15:30;6.30;;;3.40;;
19384;SDS011;9828;54.122;17.974;2023-04-03T13:26:29;1.93;;;1.33;;
19384;SDS011;9828;54.122;17.974;2023-04-03T13:31:53;8.70;;;5.63;;
19384;SDS011;9828;54.122;17.974;2023-04-03T13:37:27;8.03;;;4.30;;
19384;SDS011;9828;54.122;17.974;2023-04-03T13:43:02;7.63;;;3.90;;
19384;SDS011;9828;54.122;17.974;2023-04-03T13:48:25;4.87;;;1.97;;
19384;SDS011;9828;54.122;17.974;2023-04-03T14:04:49;9.57;;;5.20;;
19384;SDS011;9828;54.122;17.974;2023-04-03T14:10:17;4.93;;;2.50;;
19384;SDS011;9828;54.122;17.974;2023-04-03T14:15:39;4.17;;;3.07;;
19384;SDS011;9828;54.122;17.974;2023-04-03T14:21:00;5.63;;;2.53;;
19384;SDS011;9828;54.122;17.974;2023-04-03T14:26:23;6.30;;;2.33;;
19384;SDS011;9828;54.122;17.974;2023-04-03T14:31:47;6.77;;;3.07;;
19384;SDS011;9828;54.122;17.974;2023-04-03T14:37:29;15.97;;;8.57;;
19384;SDS011;9828;54.122;17.974;2023-04-03T14:42:52;43.67;;;21.97;;
19384;SDS011;9828;54.122;17.974;2023-04-03T14:48:19;8.73;;;3.83;;
19384;SDS011;9828;54.122;17.974;2023-04-03T14:53:42;7.93;;;2.90;;
19384;SDS011;9828;54.122;17.974;2023-04-03T14:59:08;14.73;;;8.37;;
19384;SDS011;9828;54.122;17.974;2023-04-03T15:04:32;3.40;;;2.27;;
19384;SDS011;9828;54.122;17.974;2023-04-03T15:09:54;6.67;;;3.17;;
19384;SDS011;9828;54.122;17.974;2023-04-03T15:15:19;8.57;;;4.87;;
19384;SDS011;9828;54.122;17.974;2023-04-03T15:20:42;12.83;;;4.57;;
19384;SDS011;9828;54.122;17.974;2023-04-03T15:26:04;6.03;;;2.93;;
19384;SDS011;9828;54.122;17.974;2023-04-03T15:31:25;4.37;;;2.77;;
19384;SDS011;9828;54.122;17.974;2023-04-03T15:36:48;6.10;;;3.30;;
19384;SDS011;9828;54.122;17.974;2023-04-03T15:42:10;6.60;;;4.10;;
19384;SDS011;9828;54.122;17.974;2023-04-03T15:47:33;18.57;;;9.93;;
19384;SDS011;9828;54.122;17.974;2023-04-03T15:52:54;17.87;;;9.90;;
19384;SDS011;9828;54.122;17.974;2023-04-03T15:58:15;6.30;;;2.90;;
19384;SDS011;9828;54.122;17.974;2023-04-03T16:03:37;5.70;;;3.30;;
19384;SDS011;9828;54.122;17.974;2023-04-03T16:09:04;12.67;;;6.93;;
19384;SDS011;9828;54.122;17.974;2023-04-03T16:14:25;4.33;;;2.47;;
19384;SDS011;9828;54.122;17.974;2023-04-03T16:19:48;4.67;;;2.93;;
19384;SDS011;9828;54.122;17.974;2023-04-03T16:25:10;3.83;;;2.20;;
19384;SDS011;9828;54.122;17.974;2023-04-03T16:30:32;8.63;;;3.87;;
19384;SDS011;9828;54.122;17.974;2023-04-03T16:35:54;9.10;;;5.07;;
19384;SDS011;9828;54.122;17.974;2023-04-03T16:41:15;6.63;;;3.70;;
19384;SDS011;9828;54.122;17.974;2023-04-03T16:46:36;5.60;;;2.87;;
19384;SDS011;9828;54.122;17.974;2023-04-03T16:51:58;8.03;;;4.47;;
19384;SDS011;9828;54.122;17.974;2023-04-03T16:57:21;6.10;;;3.07;;
19384;SDS011;9828;54.122;17.974;2023-04-03T17:02:45;12.90;;;7.30;;
19384;SDS011;9828;54.122;17.974;2023-04-03T17:08:06;20.73;;;12.43;;
19384;SDS011;9828;54.122;17.974;2023-04-03T17:13:27;13.20;;;8.00;;
19384;SDS011;9828;54.122;17.974;2023-04-03T17:18:52;16.33;;;8.13;;
19384;SDS011;9828;54.122;17.974;2023-04-03T17:24:14;6.83;;;3.47;;
19384;SDS011;9828;54.122;17.974;2023-04-03T17:29:35;15.03;;;5.83;;
19384;SDS011;9828;54.122;17.974;2023-04-03T17:34:57;11.70;;;5.33;;
19384;SDS011;9828;54.122;17.974;2023-04-03T17:40:18;11.03;;;3.77;;
19384;SDS011;9828;54.122;17.974;2023-04-03T17:46:01;6.23;;;3.10;;
19384;SDS011;9828;54.122;17.974;2023-04-03T17:51:24;6.30;;;3.10;;
19384;SDS011;9828;54.122;17.974;2023-04-03T17:56:46;4.67;;;2.47;;
19384;SDS011;9828;54.122;17.974;2023-04-03T18:02:07;9.73;;;3.60;;
19384;SDS011;9828;54.122;17.974;2023-04-03T18:07:48;9.77;;;3.53;;
19384;SDS011;9828;54.122;17.974;2023-04-03T18:13:09;7.30;;;3.20;;
19384;SDS011;9828;54.122;17.974;2023-04-03T18:18:30;5.63;;;2.70;;
19384;SDS011;9828;54.122;17.974;2023-04-03T18:23:52;6.67;;;3.70;;
19384;SDS011;9828;54.122;17.974;2023-04-03T18:29:14;7.13;;;3.33;;
19384;SDS011;9828;54.122;17.974;2023-04-03T18:34:36;11.97;;;6.77;;
19384;SDS011;9828;54.122;17.974;2023-04-03T18:39:57;13.27;;;6.67;;
19384;SDS011;9828;54.122;17.974;2023-04-03T18:45:21;9.40;;;4.90;;
19384;SDS011;9828;54.122;17.974;2023-04-03T18:50:43;12.77;;;5.03;;
19384;SDS011;9828;54.122;17.974;2023-04-03T18:56:04;11.63;;;5.80;;
19384;SDS011;9828;54.122;17.974;2023-04-03T19:01:26;11.00;;;5.10;;
19384;SDS011;9828;54.122;17.974;2023-04-03T19:06:48;14.60;;;5.20;;
19384;SDS011;9828;54.122;17.974;2023-04-03T19:12:09;13.20;;;4.87;;
19384;SDS011;9828;54.122;17.974;2023-04-03T19:17:31;9.90;;;4.70;;
19384;SDS011;9828;54.122;17.974;2023-04-03T19:22:52;9.80;;;4.30;;
19384;SDS011;9828;54.122;17.974;2023-04-03T19:28:14;12.70;;;5.77;;
19384;SDS011;9828;54.122;17.974;2023-04-03T19:33:35;12.67;;;5.27;;
19384;SDS011;9828;54.122;17.974;2023-04-03T19:38:57;12.63;;;5.53;;
19384;SDS011;9828;54.122;17.974;2023-04-03T19:44:18;15.67;;;6.70;;
19384;SDS011;9828;54.122;17.974;2023-04-03T19:49:39;13.00;;;6.40;;
19384;SDS011;9828;54.122;17.974;2023-04-03T19:55:01;10.03;;;4.53;;
19384;SDS011;9828;54.122;17.974;2023-04-03T20:00:22;10.47;;;4.60;;
19384;SDS011;9828;54.122;17.974;2023-04-03T20:05:44;9.03;;;4.27;;
19384;SDS011;9828;54.122;17.974;2023-04-03T20:11:06;15.63;;;6.30;;
19384;SDS011;9828;54.122;17.974;2023-04-03T20:16:26;17.20;;;6.90;;
19384;SDS011;9828;54.122;17.974;2023-04-03T20:21:49;11.27;;;4.50;;
19384;SDS011;9828;54.122;17.974;2023-04-03T20:27:10;14.00;;;5.33;;
19384;SDS011;9828;54.122;17.974;2023-04-03T20:32:31;11.60;;;6.10;;
19384;SDS011;9828;54.122;17.974;2023-04-03T20:37:52;13.73;;;6.50;;
19384;SDS011;9828;54.122;17.974;2023-04-03T20:43:15;19.87;;;7.77;;
19384;SDS011;9828;54.122;17.974;2023-04-03T20:48:36;15.03;;;7.10;;
19384;SDS011;9828;54.122;17.974;2023-04-03T20:53:58;13.97;;;6.37;;
19384;SDS011;9828;54.122;17.974;2023-04-03T20:59:19;15.83;;;6.87;;
19384;SDS011;9828;54.122;17.974;2023-04-03T21:04:44;10.63;;;5.10;;
19384;SDS011;9828;54.122;17.974;2023-04-03T21:21:32;11.67;;;5.40;;
19384;SDS011;9828;54.122;17.974;2023-04-03T21:26:57;7.73;;;3.53;;
19384;SDS011;9828;54.122;17.974;2023-04-03T21:32:18;6.40;;;3.03;;
19384;SDS011;9828;54.122;17.974;2023-04-03T21:37:39;10.37;;;3.83;;
19384;SDS011;9828;54.122;17.974;2023-04-03T21:43:00;9.13;;;3.27;;
19384;SDS011;9828;54.122;17.974;2023-04-03T21:48:22;5.47;;;2.47;;
19384;SDS011;9828;54.122;17.974;2023-04-03T21:53:43;13.10;;;4.47;;
19384;SDS011;9828;54.122;17.974;2023-04-03T21:59:05;10.50;;;4.90;;
19384;SDS011;9828;54.122;17.974;2023-04-03T22:04:26;13.03;;;5.03;;
19384;SDS011;9828;54.122;17.974;2023-04-03T22:09:49;9.80;;;4.20;;
19384;SDS011;9828;54.122;17.974;2023-04-03T22:15:10;15.20;;;5.03;;
19384;SDS011;9828;54.122;17.974;2023-04-03T22:20:31;11.90;;;4.60;;
19384;SDS011;9828;54.122;17.974;2023-04-03T22:26:05;4.93;;;2.27;;
19384;SDS011;9828;54.122;17.974;2023-04-03T22:31:27;7.93;;;2.40;;
19384;SDS011;9828;54.122;17.974;2023-04-03T22:36:48;5.90;;;2.20;;
19384;SDS011;9828;54.122;17.974;2023-04-03T22:42:10;8.10;;;2.77;;
19384;SDS011;9828;54.122;17.974;2023-04-03T22:47:31;9.07;;;4.20;;
19384;SDS011;9828;54.122;17.974;2023-04-03T22:52:52;8.00;;;4.07;;
19384;SDS011;9828;54.122;17.974;2023-04-03T22:58:13;11.97;;;4.70;;
19384;SDS011;9828;54.122;17.974;2023-04-03T23:03:35;5.90;;;3.20;;
19384;SDS011;9828;54.122;17.974;2023-04-03T23:08:57;10.83;;;3.83;;
19384;SDS011;9828;54.122;17.974;2023-04-03T23:14:18;7.60;;;3.47;;
19384;SDS011;9828;54.122;17.974;2023-04-03T23:19:41;10.53;;;2.63;;
19384;SDS011;9828;54.122;17.974;2023-04-03T23:25:03;5.50;;;2.70;;
19384;SDS011;9828;54.122;17.974;2023-04-03T23:30:24;6.83;;;2.53;;
19384;SDS011;9828;54.122;17.974;2023-04-03T23:35:45;3.23;;;1.70;;
19384;SDS011;9828;54.122;17.974;2023-04-03T23:41:08;3.97;;;2.13;;
19384;SDS011;9828;54.122;17.974;2023-04-03T23:46:29;7.77;;;2.23;;
19384;SDS011;9828;54.122;17.974;2023-04-03T23:51:50;6.00;;;2.10;;
19384;SDS011;9828;54.122;17.974;2023-04-03T23:57:11;5.17;;;2.53;;
